createdAt,value
2023-09-08T00:01:20.799Z,101803.50
2023-09-08T00:06:28.546Z,101802.23
2023-09-08T00:11:36.380Z,101802.29
2023-09-08T00:16:45.186Z,101794.11
2023-09-08T00:21:52.935Z,101790.91
2023-09-08T00:27:00.667Z,101789.86
2023-09-08T00:32:09.266Z,101788.31
2023-09-08T00:37:17.038Z,101787.27
2023-09-08T00:42:24.773Z,101782.02
2023-09-08T00:47:33.023Z,101779.02
2023-09-08T00:52:41.245Z,101785.19
2023-09-08T00:57:49.044Z,101782.77
2023-09-08T01:02:56.971Z,101779.73
2023-09-08T01:08:05.931Z,101781.34
2023-09-08T01:13:13.747Z,101775.55
2023-09-08T01:18:21.997Z,101775.94
2023-09-08T01:23:44.409Z,101772.55
2023-09-08T01:28:54.235Z,101769.73
2023-09-08T01:34:05.795Z,101765.17
2023-09-08T01:39:13.548Z,101767.88
2023-09-08T01:44:21.637Z,101763.53
2023-09-08T01:49:29.442Z,101758.36
2023-09-08T01:54:37.196Z,101765.68
2023-09-08T01:59:45.939Z,101761.95
2023-09-08T02:04:54.094Z,101764.83
2023-09-08T02:10:01.883Z,101770.66
2023-09-08T02:15:13.013Z,101767.55
2023-09-08T02:20:21.758Z,101765.97
2023-09-08T02:25:29.467Z,101757.19
2023-09-08T02:30:38.209Z,101753.70
2023-09-08T02:35:46.060Z,101748.55
2023-09-08T02:40:54.131Z,101754.71
2023-09-08T02:46:02.042Z,101747.41
2023-09-08T02:51:10.475Z,101750.25
2023-09-08T02:56:18.206Z,101752.50
2023-09-08T03:01:26.060Z,101747.81
2023-09-08T03:06:33.770Z,101748.71
2023-09-08T03:11:41.542Z,101745.17
2023-09-08T03:16:49.325Z,101745.04
2023-09-08T03:21:57.524Z,101743.32
2023-09-08T03:27:05.727Z,101745.65
2023-09-08T03:32:13.699Z,101746.05
2023-09-08T03:37:21.582Z,101745.80
2023-09-08T03:42:29.321Z,101745.15
2023-09-08T03:47:37.173Z,101744.72
2023-09-08T03:52:45.200Z,101740.90
2023-09-08T03:57:52.897Z,101732.70
2023-09-08T04:03:00.923Z,101735.78
2023-09-08T04:08:09.406Z,101738.35
2023-09-08T04:13:17.173Z,101735.73
2023-09-08T04:18:24.982Z,101734.94
2023-09-08T04:23:33.307Z,101741.39
2023-09-08T04:28:41.336Z,101742.99
2023-09-08T04:33:49.154Z,101748.56
2023-09-08T04:38:57.165Z,101753.30
2023-09-08T04:44:05.026Z,101754.83
2023-09-08T04:49:13.122Z,101757.05
2023-09-08T04:54:22.380Z,101759.23
2023-09-08T04:59:30.135Z,101760.23
2023-09-08T05:04:37.848Z,101756.70
2023-09-08T05:09:45.964Z,101750.72
2023-09-08T05:14:57.748Z,101749.66
2023-09-08T05:20:05.922Z,101747.73
2023-09-08T05:25:14.186Z,101747.02
2023-09-08T05:30:21.973Z,101747.84
2023-09-08T05:35:29.729Z,101751.02
2023-09-08T05:40:37.967Z,101756.41
2023-09-08T05:45:45.690Z,101761.48
2023-09-08T05:50:53.500Z,101759.25
2023-09-08T05:56:01.350Z,101762.27
2023-09-08T06:01:10.165Z,101764.96
2023-09-08T06:06:17.865Z,101767.20
2023-09-08T06:11:25.579Z,101767.56
2023-09-08T06:16:33.326Z,101769.66
2023-09-08T06:21:41.128Z,101769.08
2023-09-08T06:26:51.140Z,101766.48
2023-09-08T06:31:58.979Z,101763.59
2023-09-08T06:37:07.117Z,101766.00
2023-09-08T06:42:14.807Z,101764.98
2023-09-08T06:47:22.617Z,101765.98
2023-09-08T06:52:30.377Z,101769.66
2023-09-08T06:57:38.105Z,101766.53
2023-09-08T07:02:46.069Z,101769.14
2023-09-08T07:07:53.906Z,101771.35
2023-09-08T07:13:01.983Z,101773.13
2023-09-08T07:18:10.248Z,101772.84
2023-09-08T07:23:18.288Z,101769.38
2023-09-08T07:28:26.123Z,101772.48
2023-09-08T07:33:34.017Z,101776.08
2023-09-08T07:38:41.827Z,101772.67
2023-09-08T07:43:49.749Z,101773.77
2023-09-08T07:48:57.844Z,101775.96
2023-09-08T07:54:05.779Z,101774.55
2023-09-08T07:59:13.684Z,101774.70
2023-09-08T08:04:21.595Z,101772.17
2023-09-08T08:09:29.394Z,101769.48
2023-09-08T08:14:37.653Z,101761.91
2023-09-08T08:19:45.347Z,101755.44
2023-09-08T08:24:53.236Z,101749.60
2023-09-08T08:30:02.466Z,101747.20
2023-09-08T08:35:11.244Z,101749.25
2023-09-08T08:40:19.139Z,101745.17
2023-09-08T08:45:28.586Z,101735.98
2023-09-08T08:50:38.158Z,101731.25
2023-09-08T08:55:46.970Z,101728.85
2023-09-08T09:00:56.435Z,101726.77
2023-09-08T09:06:05.143Z,101724.73
2023-09-08T09:11:13.320Z,101719.23
2023-09-08T09:16:21.474Z,101717.97
2023-09-08T09:21:47.435Z,101712.30
2023-09-08T09:26:58.039Z,101711.80
2023-09-08T09:32:09.311Z,101703.73
2023-09-08T09:37:17.102Z,101698.42
2023-09-08T09:42:25.278Z,101696.36
2023-09-08T09:47:33.288Z,101697.20
2023-09-08T09:52:42.468Z,101694.51
2023-09-08T09:57:52.586Z,101686.50
2023-09-08T10:03:01.200Z,101679.57
2023-09-08T10:08:09.788Z,101676.09
2023-09-08T10:13:24.052Z,101678.14
2023-09-08T10:18:36.048Z,101679.58
2023-09-08T10:23:45.956Z,101674.04
2023-09-08T10:28:57.034Z,101678.20
2023-09-08T10:34:05.873Z,101674.26
2023-09-08T10:39:36.983Z,101672.26
2023-09-08T10:44:45.577Z,101663.17
2023-09-08T10:49:58.822Z,101668.34
2023-09-08T10:55:09.182Z,101663.85
2023-09-08T11:00:21.817Z,101657.84
2023-09-08T11:05:29.702Z,101648.52
2023-09-08T11:10:38.887Z,101646.62
2023-09-08T11:15:46.622Z,101638.90
2023-09-08T11:20:56.945Z,101639.14
2023-09-08T11:26:05.568Z,101638.50
2023-09-08T11:31:14.991Z,101634.27
2023-09-08T11:36:22.840Z,101627.09
2023-09-08T11:41:31.753Z,101623.95
2023-09-08T11:46:39.960Z,101617.98
2023-09-08T11:51:48.200Z,101611.80
2023-09-08T11:56:56.333Z,101609.06
2023-09-08T12:02:04.458Z,101609.16
2023-09-08T12:07:17.464Z,101606.69
2023-09-08T12:12:25.287Z,101602.71
2023-09-08T12:17:33.109Z,101594.90
2023-09-08T12:22:49.220Z,101590.45
2023-09-08T12:27:57.343Z,101589.38
2023-09-08T12:33:06.512Z,101586.89
2023-09-08T12:38:15.328Z,101586.57
2023-09-08T12:43:27.293Z,101585.52
2023-09-08T12:48:36.570Z,101576.60
2023-09-08T12:53:44.395Z,101573.77
2023-09-08T12:58:52.147Z,101569.94
2023-09-08T13:04:00.520Z,101561.23
2023-09-08T13:09:09.612Z,101555.57
2023-09-08T13:14:17.335Z,101545.36
2023-09-08T13:19:25.140Z,101544.23
2023-09-08T13:24:33.162Z,101537.83
2023-09-08T13:29:41.495Z,101534.80
2023-09-08T13:34:49.555Z,101528.33
2023-09-08T13:39:57.525Z,101527.84
2023-09-08T13:45:06.263Z,101526.00
2023-09-08T13:50:14.684Z,101518.75
2023-09-08T13:55:36.725Z,101518.52
2023-09-08T14:00:47.165Z,101509.48
2023-09-08T14:06:02.750Z,101504.46
2023-09-08T14:11:15.799Z,101502.26
2023-09-08T14:16:32.901Z,101496.92
2023-09-08T14:21:41.211Z,101490.08
2023-09-08T14:26:49.046Z,101482.42
2023-09-08T14:31:56.858Z,101480.74
2023-09-08T14:37:05.743Z,101485.86
2023-09-08T14:42:15.427Z,101483.89
2023-09-08T14:47:23.240Z,101483.70
2023-09-08T14:52:30.965Z,101484.74
2023-09-08T14:57:38.938Z,101478.49
2023-09-08T15:02:47.474Z,101473.39
2023-09-08T15:07:55.290Z,101468.81
2023-09-08T15:13:03.277Z,101466.36
2023-09-08T15:18:11.154Z,101457.19
2023-09-08T15:23:19.005Z,101454.95
2023-09-08T15:28:27.310Z,101451.27
2023-09-08T15:33:35.397Z,101451.28
2023-09-08T15:38:43.540Z,101453.31
2023-09-08T15:43:53.334Z,101449.20
2023-09-08T15:49:01.182Z,101445.93
2023-09-08T15:54:09.470Z,101441.67
2023-09-08T15:59:18.201Z,101442.19
2023-09-08T16:04:26.196Z,101437.13
2023-09-08T16:09:34.013Z,101436.08
2023-09-08T16:14:41.779Z,101431.79
2023-09-08T16:19:49.659Z,101434.21
2023-09-08T16:24:57.388Z,101430.11
2023-09-08T16:30:05.837Z,101425.40
2023-09-08T16:35:13.710Z,101422.73
2023-09-08T16:40:23.534Z,101419.18
2023-09-08T16:45:31.425Z,101416.02
2023-09-08T16:50:39.219Z,101416.42
2023-09-08T16:55:47.054Z,101420.43
2023-09-08T17:00:54.819Z,101424.02
2023-09-08T17:06:02.725Z,101426.82
2023-09-08T17:11:11.576Z,101429.99
2023-09-08T17:16:19.352Z,101430.23
2023-09-08T17:21:28.879Z,101428.98
2023-09-08T17:26:36.635Z,101429.25
2023-09-08T17:31:44.709Z,101427.67
2023-09-08T17:36:56.979Z,101430.57
2023-09-08T17:42:04.997Z,101426.09
2023-09-08T17:47:12.751Z,101429.48
2023-09-08T17:52:20.645Z,101423.89
2023-09-08T17:57:28.444Z,101430.52
2023-09-08T18:02:36.786Z,101433.36
2023-09-08T18:07:46.121Z,101431.40
2023-09-08T18:12:53.997Z,101432.97
2023-09-08T18:18:02.052Z,101432.85
2023-09-08T18:23:10.163Z,101434.81
2023-09-08T18:28:19.034Z,101429.30
2023-09-08T18:33:27.161Z,101434.33
2023-09-08T18:38:35.670Z,101439.10
2023-09-08T18:43:43.411Z,101436.81
2023-09-08T18:48:51.291Z,101437.21
2023-09-08T18:53:59.035Z,101438.95
2023-09-08T18:59:07.130Z,101442.33
2023-09-08T19:04:15.235Z,101437.94
2023-09-08T19:09:23.343Z,101434.40
2023-09-08T19:14:31.388Z,101430.78
2023-09-08T19:19:39.094Z,101430.74
2023-09-08T19:24:48.934Z,101433.27
2023-09-08T19:29:56.920Z,101435.48
2023-09-08T19:35:04.872Z,101433.73
2023-09-08T19:40:13.247Z,101431.86
2023-09-08T19:45:21.826Z,101430.67
2023-09-08T19:50:29.778Z,101427.04
2023-09-08T19:55:38.478Z,101430.95
2023-09-08T20:00:46.168Z,101434.73
2023-09-08T20:05:55.030Z,101431.25
2023-09-08T20:11:04.108Z,101423.48
2023-09-08T20:16:12.162Z,101421.01
2023-09-08T20:21:19.988Z,101421.84
2023-09-08T20:26:27.808Z,101420.55
2023-09-08T20:31:35.518Z,101422.55
2023-09-08T20:36:43.239Z,101421.12
2023-09-08T20:41:51.061Z,101423.00
2023-09-08T20:46:59.191Z,101425.48
2023-09-08T20:52:12.839Z,101430.77
2023-09-08T20:57:20.656Z,101430.79
2023-09-08T21:02:28.453Z,101427.98
2023-09-08T21:07:36.162Z,101420.27
2023-09-08T21:12:43.899Z,101420.70
2023-09-08T21:17:51.741Z,101420.89
2023-09-08T21:23:02.908Z,101417.52
2023-09-08T21:28:10.801Z,101412.70
2023-09-08T21:33:21.830Z,101403.86
2023-09-08T21:38:29.737Z,101403.77
2023-09-08T21:43:38.021Z,101399.99
2023-09-08T21:48:46.105Z,101401.34
2023-09-08T21:53:53.983Z,101400.74
2023-09-08T21:59:01.743Z,101399.13
2023-09-08T22:04:10.248Z,101401.33
2023-09-08T22:09:19.966Z,101407.30
2023-09-08T22:14:28.701Z,101405.56
2023-09-08T22:19:36.449Z,101400.77
2023-09-08T22:24:44.176Z,101405.52
2023-09-08T22:29:51.929Z,101401.98
2023-09-08T22:34:59.797Z,101397.66
2023-09-08T22:40:10.406Z,101394.87
2023-09-08T22:45:18.535Z,101392.00
2023-09-08T22:50:27.419Z,101396.52
2023-09-08T22:55:35.255Z,101402.65
2023-09-08T23:00:43.139Z,101402.05
2023-09-08T23:05:51.400Z,101404.39
2023-09-08T23:10:59.108Z,101401.18
2023-09-08T23:16:07.201Z,101401.52
2023-09-08T23:21:14.973Z,101405.80
2023-09-08T23:26:22.907Z,101404.05
2023-09-08T23:31:30.657Z,101397.58
2023-09-08T23:36:38.412Z,101397.02
2023-09-08T23:41:47.324Z,101400.45
2023-09-08T23:46:55.219Z,101401.40
2023-09-08T23:52:03.125Z,101395.89
2023-09-08T23:57:10.904Z,101396.11
